sensor_id;sensor_type;location;lat;lon;timestamp;temperature;humidity
69328;DHT22;56472;52.114;5.492;2023-03-01T00:01:20;4.10;54.80
69328;DHT22;56472;52.114;5.492;2023-03-01T00:03:48;4.10;55.00
69328;DHT22;56472;52.114;5.492;2023-03-01T00:06:16;4.10;55.00
69328;DHT22;56472;52.114;5.492;2023-03-01T00:08:43;4.00;54.90
69328;DHT22;56472;52.114;5.492;2023-03-01T00:11:16;4.00;55.10
69328;DHT22;56472;52.114;5.492;2023-03-01T00:13:47;4.00;55.20
69328;DHT22;56472;52.114;5.492;2023-03-01T00:16:17;4.00;55.20
69328;DHT22;56472;52.114;5.492;2023-03-01T00:18:45;3.90;55.30
69328;DHT22;56472;52.114;5.492;2023-03-01T00:21:12;3.90;55.40
69328;DHT22;56472;52.114;5.492;2023-03-01T00:23:39;3.90;55.50
69328;DHT22;56472;52.114;5.492;2023-03-01T00:26:09;3.80;55.60
69328;DHT22;56472;52.114;5.492;2023-03-01T00:28:39;3.80;55.80
69328;DHT22;56472;52.114;5.492;2023-03-01T00:31:10;3.80;55.80
69328;DHT22;56472;52.114;5.492;2023-03-01T00:33:38;3.80;55.90
69328;DHT22;56472;52.114;5.492;2023-03-01T00:36:06;3.80;56.00
69328;DHT22;56472;52.114;5.492;2023-03-01T00:38:40;3.70;56.00
69328;DHT22;56472;52.114;5.492;2023-03-01T00:41:11;3.70;56.20
69328;DHT22;56472;52.114;5.492;2023-03-01T00:43:39;3.70;56.30
69328;DHT22;56472;52.114;5.492;2023-03-01T00:46:10;3.70;56.40
69328;DHT22;56472;52.114;5.492;2023-03-01T00:48:38;3.70;56.50
69328;DHT22;56472;52.114;5.492;2023-03-01T00:51:07;3.70;56.50
69328;DHT22;56472;52.114;5.492;2023-03-01T00:53:35;3.60;56.60
69328;DHT22;56472;52.114;5.492;2023-03-01T00:56:04;3.60;56.70
69328;DHT22;56472;52.114;5.492;2023-03-01T00:58:32;3.60;56.80
69328;DHT22;56472;52.114;5.492;2023-03-01T01:00:59;3.60;56.80
69328;DHT22;56472;52.114;5.492;2023-03-01T01:03:26;3.60;56.90
69328;DHT22;56472;52.114;5.492;2023-03-01T01:05:53;3.50;56.90
69328;DHT22;56472;52.114;5.492;2023-03-01T01:08:20;3.50;57.00
69328;DHT22;56472;52.114;5.492;2023-03-01T01:10:48;3.50;57.10
69328;DHT22;56472;52.114;5.492;2023-03-01T01:13:15;3.50;57.20
69328;DHT22;56472;52.114;5.492;2023-03-01T01:15:42;3.50;57.30
69328;DHT22;56472;52.114;5.492;2023-03-01T01:18:09;3.50;57.40
69328;DHT22;56472;52.114;5.492;2023-03-01T01:20:36;3.50;57.60
69328;DHT22;56472;52.114;5.492;2023-03-01T01:23:05;3.40;57.80
69328;DHT22;56472;52.114;5.492;2023-03-01T01:25:35;3.40;58.00
69328;DHT22;56472;52.114;5.492;2023-03-01T01:28:02;3.40;58.00
69328;DHT22;56472;52.114;5.492;2023-03-01T01:30:29;3.40;58.20
69328;DHT22;56472;52.114;5.492;2023-03-01T01:32:56;3.40;58.20
69328;DHT22;56472;52.114;5.492;2023-03-01T01:35:23;3.40;58.20
69328;DHT22;56472;52.114;5.492;2023-03-01T01:37:51;3.40;58.10
69328;DHT22;56472;52.114;5.492;2023-03-01T01:40:18;3.30;58.00
69328;DHT22;56472;52.114;5.492;2023-03-01T01:42:45;3.30;58.10
69328;DHT22;56472;52.114;5.492;2023-03-01T01:45:34;3.30;58.10
69328;DHT22;56472;52.114;5.492;2023-03-01T01:48:09;3.30;58.20
69328;DHT22;56472;52.114;5.492;2023-03-01T01:50:39;3.20;58.30
69328;DHT22;56472;52.114;5.492;2023-03-01T01:53:15;3.20;58.40
69328;DHT22;56472;52.114;5.492;2023-03-01T01:55:45;3.20;58.80
69328;DHT22;56472;52.114;5.492;2023-03-01T01:58:17;3.20;58.90
69328;DHT22;56472;52.114;5.492;2023-03-01T02:00:44;3.20;59.00
69328;DHT22;56472;52.114;5.492;2023-03-01T02:03:16;3.10;59.10
69328;DHT22;56472;52.114;5.492;2023-03-01T02:08:28;3.10;59.50
69328;DHT22;56472;52.114;5.492;2023-03-01T02:10:58;3.10;59.60
69328;DHT22;56472;52.114;5.492;2023-03-01T02:13:27;3.10;59.70
69328;DHT22;56472;52.114;5.492;2023-03-01T02:15:54;3.00;59.70
69328;DHT22;56472;52.114;5.492;2023-03-01T02:18:22;3.00;59.90
69328;DHT22;56472;52.114;5.492;2023-03-01T02:21:08;3.00;60.00
69328;DHT22;56472;52.114;5.492;2023-03-01T02:23:40;3.00;60.10
69328;DHT22;56472;52.114;5.492;2023-03-01T02:26:28;2.90;60.00
69328;DHT22;56472;52.114;5.492;2023-03-01T02:28:58;2.90;60.20
69328;DHT22;56472;52.114;5.492;2023-03-01T02:31:26;2.90;60.20
69328;DHT22;56472;52.114;5.492;2023-03-01T02:34:17;2.80;60.40
69328;DHT22;56472;52.114;5.492;2023-03-01T02:39:18;2.80;60.60
69328;DHT22;56472;52.114;5.492;2023-03-01T02:41:49;2.80;60.70
69328;DHT22;56472;52.114;5.492;2023-03-01T02:44:18;2.80;60.80
69328;DHT22;56472;52.114;5.492;2023-03-01T02:46:54;2.70;60.90
69328;DHT22;56472;52.114;5.492;2023-03-01T02:49:29;2.70;60.90
69328;DHT22;56472;52.114;5.492;2023-03-01T02:54:57;2.60;60.70
69328;DHT22;56472;52.114;5.492;2023-03-01T02:57:27;2.60;60.70
69328;DHT22;56472;52.114;5.492;2023-03-01T02:59:55;2.60;60.90
69328;DHT22;56472;52.114;5.492;2023-03-01T03:02:29;2.50;60.90
69328;DHT22;56472;52.114;5.492;2023-03-01T03:05:28;2.50;61.20
69328;DHT22;56472;52.114;5.492;2023-03-01T03:07:58;2.50;61.20
69328;DHT22;56472;52.114;5.492;2023-03-01T03:10:32;2.40;61.20
69328;DHT22;56472;52.114;5.492;2023-03-01T03:13:06;2.50;61.30
69328;DHT22;56472;52.114;5.492;2023-03-01T03:15:34;2.40;61.30
69328;DHT22;56472;52.114;5.492;2023-03-01T03:18:04;2.40;61.40
69328;DHT22;56472;52.114;5.492;2023-03-01T03:20:33;2.40;61.30
69328;DHT22;56472;52.114;5.492;2023-03-01T03:23:00;2.40;61.40
69328;DHT22;56472;52.114;5.492;2023-03-01T03:25:28;2.40;61.40
69328;DHT22;56472;52.114;5.492;2023-03-01T03:27:56;2.40;61.40
69328;DHT22;56472;52.114;5.492;2023-03-01T03:30:29;2.40;61.40
69328;DHT22;56472;52.114;5.492;2023-03-01T03:32:58;2.40;61.50
69328;DHT22;56472;52.114;5.492;2023-03-01T03:35:28;2.30;61.60
69328;DHT22;56472;52.114;5.492;2023-03-01T03:37:59;2.30;61.60
69328;DHT22;56472;52.114;5.492;2023-03-01T03:43:02;2.30;61.80
69328;DHT22;56472;52.114;5.492;2023-03-01T03:45:30;2.30;62.00
69328;DHT22;56472;52.114;5.492;2023-03-01T03:48:00;2.30;61.90
69328;DHT22;56472;52.114;5.492;2023-03-01T03:50:27;2.20;62.00
69328;DHT22;56472;52.114;5.492;2023-03-01T03:52:54;2.20;62.00
69328;DHT22;56472;52.114;5.492;2023-03-01T03:55:22;2.20;62.10
69328;DHT22;56472;52.114;5.492;2023-03-01T03:57:49;2.20;62.10
69328;DHT22;56472;52.114;5.492;2023-03-01T04:00:20;2.20;62.10
69328;DHT22;56472;52.114;5.492;2023-03-01T04:02:48;2.20;62.10
69328;DHT22;56472;52.114;5.492;2023-03-01T04:05:16;2.20;62.10
69328;DHT22;56472;52.114;5.492;2023-03-01T04:07:45;2.20;62.10
69328;DHT22;56472;52.114;5.492;2023-03-01T04:10:16;2.10;62.00
69328;DHT22;56472;52.114;5.492;2023-03-01T04:12:43;2.10;62.10
69328;DHT22;56472;52.114;5.492;2023-03-01T04:15:11;2.10;62.10
69328;DHT22;56472;52.114;5.492;2023-03-01T04:17:43;2.10;62.00
69328;DHT22;56472;52.114;5.492;2023-03-01T04:20:15;2.10;62.10
69328;DHT22;56472;52.114;5.492;2023-03-01T04:22:59;2.10;62.10
69328;DHT22;56472;52.114;5.492;2023-03-01T04:25:51;2.10;62.00
69328;DHT22;56472;52.114;5.492;2023-03-01T04:28:26;2.00;62.00
69328;DHT22;56472;52.114;5.492;2023-03-01T04:30:56;2.00;62.00
69328;DHT22;56472;52.114;5.492;2023-03-01T04:33:24;2.00;62.00
69328;DHT22;56472;52.114;5.492;2023-03-01T04:35:51;2.00;62.00
69328;DHT22;56472;52.114;5.492;2023-03-01T04:38:19;2.00;62.00
69328;DHT22;56472;52.114;5.492;2023-03-01T04:40:48;1.90;62.00
69328;DHT22;56472;52.114;5.492;2023-03-01T04:43:15;1.90;62.30
69328;DHT22;56472;52.114;5.492;2023-03-01T04:45:42;1.90;62.50
69328;DHT22;56472;52.114;5.492;2023-03-01T04:48:09;1.90;62.70
69328;DHT22;56472;52.114;5.492;2023-03-01T04:50:36;1.80;62.90
69328;DHT22;56472;52.114;5.492;2023-03-01T04:53:03;1.80;63.00
69328;DHT22;56472;52.114;5.492;2023-03-01T04:55:30;1.80;63.00
69328;DHT22;56472;52.114;5.492;2023-03-01T04:57:58;1.80;63.10
69328;DHT22;56472;52.114;5.492;2023-03-01T05:00:25;1.80;64.10
69328;DHT22;56472;52.114;5.492;2023-03-01T05:02:58;1.70;63.20
69328;DHT22;56472;52.114;5.492;2023-03-01T05:05:39;1.70;63.20
69328;DHT22;56472;52.114;5.492;2023-03-01T05:08:07;1.70;63.20
69328;DHT22;56472;52.114;5.492;2023-03-01T05:10:36;1.70;63.30
69328;DHT22;56472;52.114;5.492;2023-03-01T05:13:03;1.70;63.20
69328;DHT22;56472;52.114;5.492;2023-03-01T05:15:32;1.70;63.10
69328;DHT22;56472;52.114;5.492;2023-03-01T05:18:00;1.60;63.00
69328;DHT22;56472;52.114;5.492;2023-03-01T05:20:29;1.60;63.00
69328;DHT22;56472;52.114;5.492;2023-03-01T05:22:58;1.60;63.10
69328;DHT22;56472;52.114;5.492;2023-03-01T05:25:26;1.50;63.10
69328;DHT22;56472;52.114;5.492;2023-03-01T05:27:53;1.50;63.10
69328;DHT22;56472;52.114;5.492;2023-03-01T05:30:20;1.50;63.10
69328;DHT22;56472;52.114;5.492;2023-03-01T05:32:49;1.40;63.20
69328;DHT22;56472;52.114;5.492;2023-03-01T05:35:22;1.40;63.40
69328;DHT22;56472;52.114;5.492;2023-03-01T05:37:50;1.40;63.50
69328;DHT22;56472;52.114;5.492;2023-03-01T05:40:23;1.40;63.50
69328;DHT22;56472;52.114;5.492;2023-03-01T05:42:53;1.40;63.60
69328;DHT22;56472;52.114;5.492;2023-03-01T05:45:22;1.40;63.60
69328;DHT22;56472;52.114;5.492;2023-03-01T05:47:50;1.40;63.70
69328;DHT22;56472;52.114;5.492;2023-03-01T05:50:22;1.30;63.70
69328;DHT22;56472;52.114;5.492;2023-03-01T05:52:52;1.40;63.80
69328;DHT22;56472;52.114;5.492;2023-03-01T05:55:20;1.40;63.80
69328;DHT22;56472;52.114;5.492;2023-03-01T05:57:48;1.30;63.60
69328;DHT22;56472;52.114;5.492;2023-03-01T06:00:16;1.30;63.60
69328;DHT22;56472;52.114;5.492;2023-03-01T06:02:43;1.30;63.50
69328;DHT22;56472;52.114;5.492;2023-03-01T06:05:12;1.30;63.60
69328;DHT22;56472;52.114;5.492;2023-03-01T06:07:40;1.30;63.60
69328;DHT22;56472;52.114;5.492;2023-03-01T06:10:08;1.30;63.60
69328;DHT22;56472;52.114;5.492;2023-03-01T06:12:38;1.30;63.60
69328;DHT22;56472;52.114;5.492;2023-03-01T06:15:06;1.30;63.60
69328;DHT22;56472;52.114;5.492;2023-03-01T06:17:34;1.20;63.50
69328;DHT22;56472;52.114;5.492;2023-03-01T06:20:24;1.20;63.50
69328;DHT22;56472;52.114;5.492;2023-03-01T06:22:52;1.20;63.50
69328;DHT22;56472;52.114;5.492;2023-03-01T06:25:21;1.20;63.50
69328;DHT22;56472;52.114;5.492;2023-03-01T06:27:48;1.20;63.40
69328;DHT22;56472;52.114;5.492;2023-03-01T06:30:17;1.20;63.50
69328;DHT22;56472;52.114;5.492;2023-03-01T06:32:44;1.20;63.60
69328;DHT22;56472;52.114;5.492;2023-03-01T06:35:13;1.20;63.70
69328;DHT22;56472;52.114;5.492;2023-03-01T06:37:41;1.20;63.80
69328;DHT22;56472;52.114;5.492;2023-03-01T06:40:08;1.20;63.80
69328;DHT22;56472;52.114;5.492;2023-03-01T06:42:39;1.10;63.80
69328;DHT22;56472;52.114;5.492;2023-03-01T06:45:07;1.20;63.90
69328;DHT22;56472;52.114;5.492;2023-03-01T06:47:34;1.20;63.90
69328;DHT22;56472;52.114;5.492;2023-03-01T06:50:02;1.20;64.00
69328;DHT22;56472;52.114;5.492;2023-03-01T06:52:29;1.20;64.00
69328;DHT22;56472;52.114;5.492;2023-03-01T06:54:56;1.20;64.10
69328;DHT22;56472;52.114;5.492;2023-03-01T06:57:23;1.20;64.20
69328;DHT22;56472;52.114;5.492;2023-03-01T06:59:50;1.20;64.40
69328;DHT22;56472;52.114;5.492;2023-03-01T07:02:17;1.20;64.60
69328;DHT22;56472;52.114;5.492;2023-03-01T07:04:44;1.20;64.80
69328;DHT22;56472;52.114;5.492;2023-03-01T07:07:11;1.20;64.90
69328;DHT22;56472;52.114;5.492;2023-03-01T07:09:38;1.20;65.00
69328;DHT22;56472;52.114;5.492;2023-03-01T07:12:05;1.20;65.10
69328;DHT22;56472;52.114;5.492;2023-03-01T07:14:32;1.20;65.20
69328;DHT22;56472;52.114;5.492;2023-03-01T07:16:58;1.30;65.40
69328;DHT22;56472;52.114;5.492;2023-03-01T07:19:25;1.30;65.50
69328;DHT22;56472;52.114;5.492;2023-03-01T07:21:52;1.40;65.60
69328;DHT22;56472;52.114;5.492;2023-03-01T07:24:19;1.40;65.60
69328;DHT22;56472;52.114;5.492;2023-03-01T07:26:50;1.50;65.80
69328;DHT22;56472;52.114;5.492;2023-03-01T07:29:17;1.50;65.80
69328;DHT22;56472;52.114;5.492;2023-03-01T07:31:45;1.60;65.90
69328;DHT22;56472;52.114;5.492;2023-03-01T07:34:12;1.60;66.00
69328;DHT22;56472;52.114;5.492;2023-03-01T07:36:39;1.70;66.20
69328;DHT22;56472;52.114;5.492;2023-03-01T07:39:10;1.80;66.40
69328;DHT22;56472;52.114;5.492;2023-03-01T07:41:37;1.80;66.50
69328;DHT22;56472;52.114;5.492;2023-03-01T07:44:04;1.90;66.60
69328;DHT22;56472;52.114;5.492;2023-03-01T07:46:31;2.00;66.70
69328;DHT22;56472;52.114;5.492;2023-03-01T07:48:58;2.00;66.70
69328;DHT22;56472;52.114;5.492;2023-03-01T07:51:25;2.10;66.80
69328;DHT22;56472;52.114;5.492;2023-03-01T07:53:52;2.20;66.90
69328;DHT22;56472;52.114;5.492;2023-03-01T07:56:19;2.30;67.10
69328;DHT22;56472;52.114;5.492;2023-03-01T07:58:46;2.30;67.10
69328;DHT22;56472;52.114;5.492;2023-03-01T08:01:18;2.40;67.30
69328;DHT22;56472;52.114;5.492;2023-03-01T08:03:45;2.50;67.40
69328;DHT22;56472;52.114;5.492;2023-03-01T08:06:14;2.50;67.50
69328;DHT22;56472;52.114;5.492;2023-03-01T08:08:41;2.60;67.60
69328;DHT22;56472;52.114;5.492;2023-03-01T08:11:11;2.70;67.80
69328;DHT22;56472;52.114;5.492;2023-03-01T08:13:38;2.80;68.00
69328;DHT22;56472;52.114;5.492;2023-03-01T08:16:11;2.90;68.00
69328;DHT22;56472;52.114;5.492;2023-03-01T08:18:39;3.00;68.10
69328;DHT22;56472;52.114;5.492;2023-03-01T08:21:11;3.10;68.10
69328;DHT22;56472;52.114;5.492;2023-03-01T08:23:39;3.20;68.20
69328;DHT22;56472;52.114;5.492;2023-03-01T08:26:16;3.30;68.20
69328;DHT22;56472;52.114;5.492;2023-03-01T08:28:44;3.40;68.30
69328;DHT22;56472;52.114;5.492;2023-03-01T08:31:23;3.50;68.30
69328;DHT22;56472;52.114;5.492;2023-03-01T08:33:52;3.50;68.20
69328;DHT22;56472;52.114;5.492;2023-03-01T08:36:23;3.60;68.10
69328;DHT22;56472;52.114;5.492;2023-03-01T08:38:51;3.70;68.20
69328;DHT22;56472;52.114;5.492;2023-03-01T08:41:17;3.80;68.20
69328;DHT22;56472;52.114;5.492;2023-03-01T08:43:45;3.90;68.10
69328;DHT22;56472;52.114;5.492;2023-03-01T08:46:13;3.90;68.00
69328;DHT22;56472;52.114;5.492;2023-03-01T08:48:40;4.00;67.90
69328;DHT22;56472;52.114;5.492;2023-03-01T08:51:15;4.10;67.90
69328;DHT22;56472;52.114;5.492;2023-03-01T08:53:42;4.10;67.90
69328;DHT22;56472;52.114;5.492;2023-03-01T08:56:10;4.20;68.00
69328;DHT22;56472;52.114;5.492;2023-03-01T08:58:37;4.30;67.90
69328;DHT22;56472;52.114;5.492;2023-03-01T09:01:12;4.40;68.00
69328;DHT22;56472;52.114;5.492;2023-03-01T09:03:39;4.40;67.80
69328;DHT22;56472;52.114;5.492;2023-03-01T09:06:07;4.50;67.90
69328;DHT22;56472;52.114;5.492;2023-03-01T09:08:39;4.60;67.90
69328;DHT22;56472;52.114;5.492;2023-03-01T09:11:07;4.60;67.70
69328;DHT22;56472;52.114;5.492;2023-03-01T09:13:34;4.70;67.80
69328;DHT22;56472;52.114;5.492;2023-03-01T09:16:03;4.80;67.80
69328;DHT22;56472;52.114;5.492;2023-03-01T09:18:31;4.90;67.80
69328;DHT22;56472;52.114;5.492;2023-03-01T09:21:11;5.00;67.70
69328;DHT22;56472;52.114;5.492;2023-03-01T09:23:40;5.10;67.50
69328;DHT22;56472;52.114;5.492;2023-03-01T09:26:10;5.20;67.40
69328;DHT22;56472;52.114;5.492;2023-03-01T09:28:37;5.30;67.30
69328;DHT22;56472;52.114;5.492;2023-03-01T09:31:05;5.40;67.20
69328;DHT22;56472;52.114;5.492;2023-03-01T09:33:32;5.40;66.90
69328;DHT22;56472;52.114;5.492;2023-03-01T09:36:02;5.50;66.70
69328;DHT22;56472;52.114;5.492;2023-03-01T09:38:30;5.60;66.60
69328;DHT22;56472;52.114;5.492;2023-03-01T09:40:57;5.70;66.30
69328;DHT22;56472;52.114;5.492;2023-03-01T09:43:53;5.80;66.30
69328;DHT22;56472;52.114;5.492;2023-03-01T09:46:25;5.90;65.70
69328;DHT22;56472;52.114;5.492;2023-03-01T09:49:07;6.00;65.60
69328;DHT22;56472;52.114;5.492;2023-03-01T09:51:37;6.10;65.60
69328;DHT22;56472;52.114;5.492;2023-03-01T09:54:05;6.20;65.30
69328;DHT22;56472;52.114;5.492;2023-03-01T09:56:41;6.20;64.70
69328;DHT22;56472;52.114;5.492;2023-03-01T10:09:41;6.60;62.70
69328;DHT22;56472;52.114;5.492;2023-03-01T10:12:15;6.70;62.70
69328;DHT22;56472;52.114;5.492;2023-03-01T10:23:19;7.00;61.80
69328;DHT22;56472;52.114;5.492;2023-03-01T10:26:15;7.10;61.70
69328;DHT22;56472;52.114;5.492;2023-03-01T10:31:24;7.30;60.30
69328;DHT22;56472;52.114;5.492;2023-03-01T10:33:55;7.40;60.00
69328;DHT22;56472;52.114;5.492;2023-03-01T10:36:24;7.50;60.10
69328;DHT22;56472;52.114;5.492;2023-03-01T10:38:53;7.60;59.30
69328;DHT22;56472;52.114;5.492;2023-03-01T10:41:21;7.70;58.60
69328;DHT22;56472;52.114;5.492;2023-03-01T10:43:54;7.70;58.40
69328;DHT22;56472;52.114;5.492;2023-03-01T10:46:31;7.70;57.60
69328;DHT22;56472;52.114;5.492;2023-03-01T10:49:20;7.80;57.70
69328;DHT22;56472;52.114;5.492;2023-03-01T10:51:49;7.90;56.30
69328;DHT22;56472;52.114;5.492;2023-03-01T10:54:18;8.00;56.10
69328;DHT22;56472;52.114;5.492;2023-03-01T10:56:50;8.00;55.80
69328;DHT22;56472;52.114;5.492;2023-03-01T10:59:28;8.00;54.90
69328;DHT22;56472;52.114;5.492;2023-03-01T11:02:30;8.10;54.60
69328;DHT22;56472;52.114;5.492;2023-03-01T11:05:18;8.20;54.50
69328;DHT22;56472;52.114;5.492;2023-03-01T11:07:58;8.30;54.40
69328;DHT22;56472;52.114;5.492;2023-03-01T11:10:34;8.30;54.10
69328;DHT22;56472;52.114;5.492;2023-03-01T11:13:14;8.30;54.00
69328;DHT22;56472;52.114;5.492;2023-03-01T11:15:42;8.40;54.00
69328;DHT22;56472;52.114;5.492;2023-03-01T11:18:23;8.40;53.80
69328;DHT22;56472;52.114;5.492;2023-03-01T11:21:08;8.50;53.40
69328;DHT22;56472;52.114;5.492;2023-03-01T11:23:36;8.60;53.60
69328;DHT22;56472;52.114;5.492;2023-03-01T11:26:07;8.70;53.00
69328;DHT22;56472;52.114;5.492;2023-03-01T11:28:39;8.70;52.90
69328;DHT22;56472;52.114;5.492;2023-03-01T11:31:08;8.80;51.60
69328;DHT22;56472;52.114;5.492;2023-03-01T11:33:55;8.90;51.10
69328;DHT22;56472;52.114;5.492;2023-03-01T11:36:44;9.00;50.70
69328;DHT22;56472;52.114;5.492;2023-03-01T11:39:47;9.10;50.40
69328;DHT22;56472;52.114;5.492;2023-03-01T11:45:06;9.30;49.70
69328;DHT22;56472;52.114;5.492;2023-03-01T12:06:50;10.10;47.90
69328;DHT22;56472;52.114;5.492;2023-03-01T12:09:38;10.30;48.00
69328;DHT22;56472;52.114;5.492;2023-03-01T12:20:30;10.80;46.90
69328;DHT22;56472;52.114;5.492;2023-03-01T12:24:23;10.90;45.70
69328;DHT22;56472;52.114;5.492;2023-03-01T12:34:09;11.10;43.60
69328;DHT22;56472;52.114;5.492;2023-03-01T12:42:36;11.10;42.20
69328;DHT22;56472;52.114;5.492;2023-03-01T12:45:20;11.20;43.10
69328;DHT22;56472;52.114;5.492;2023-03-01T12:50:44;11.60;44.00
69328;DHT22;56472;52.114;5.492;2023-03-01T12:53:34;12.10;44.60
69328;DHT22;56472;52.114;5.492;2023-03-01T12:56:06;12.90;44.80
69328;DHT22;56472;52.114;5.492;2023-03-01T12:58:41;13.80;44.40
69328;DHT22;56472;52.114;5.492;2023-03-01T13:10:00;18.00;35.60
69328;DHT22;56472;52.114;5.492;2023-03-01T13:12:51;18.70;35.30
69328;DHT22;56472;52.114;5.492;2023-03-01T13:23:30;21.70;29.80
69328;DHT22;56472;52.114;5.492;2023-03-01T13:26:17;22.40;29.20
69328;DHT22;56472;52.114;5.492;2023-03-01T13:33:52;24.00;27.10
69328;DHT22;56472;52.114;5.492;2023-03-01T13:38:58;25.00;25.50
69328;DHT22;56472;52.114;5.492;2023-03-01T13:55:41;26.80;23.90
69328;DHT22;56472;52.114;5.492;2023-03-01T14:00:41;27.60;23.40
69328;DHT22;56472;52.114;5.492;2023-03-01T14:03:15;27.80;23.20
69328;DHT22;56472;52.114;5.492;2023-03-01T14:05:56;27.90;23.00
69328;DHT22;56472;52.114;5.492;2023-03-01T14:08:38;28.00;23.00
69328;DHT22;56472;52.114;5.492;2023-03-01T14:21:26;28.80;21.20
69328;DHT22;56472;52.114;5.492;2023-03-01T14:23:53;28.90;21.20
69328;DHT22;56472;52.114;5.492;2023-03-01T14:26:22;28.80;21.50
69328;DHT22;56472;52.114;5.492;2023-03-01T14:28:50;28.80;21.40
69328;DHT22;56472;52.114;5.492;2023-03-01T14:31:35;28.80;21.00
69328;DHT22;56472;52.114;5.492;2023-03-01T14:34:23;28.90;20.80
69328;DHT22;56472;52.114;5.492;2023-03-01T14:36:51;29.00;20.70
69328;DHT22;56472;52.114;5.492;2023-03-01T14:39:19;29.10;20.50
69328;DHT22;56472;52.114;5.492;2023-03-01T14:41:50;29.20;20.20
69328;DHT22;56472;52.114;5.492;2023-03-01T14:44:22;29.10;20.30
69328;DHT22;56472;52.114;5.492;2023-03-01T14:46:55;29.10;20.40
69328;DHT22;56472;52.114;5.492;2023-03-01T14:49:26;29.10;20.50
69328;DHT22;56472;52.114;5.492;2023-03-01T14:52:04;29.20;20.20
69328;DHT22;56472;52.114;5.492;2023-03-01T14:54:49;29.20;20.30
69328;DHT22;56472;52.114;5.492;2023-03-01T14:57:22;29.20;19.80
69328;DHT22;56472;52.114;5.492;2023-03-01T14:59:55;29.30;20.00
69328;DHT22;56472;52.114;5.492;2023-03-01T15:02:26;29.30;19.80
69328;DHT22;56472;52.114;5.492;2023-03-01T15:05:00;29.30;20.00
69328;DHT22;56472;52.114;5.492;2023-03-01T15:07:34;29.20;19.90
69328;DHT22;56472;52.114;5.492;2023-03-01T15:10:03;29.20;20.00
69328;DHT22;56472;52.114;5.492;2023-03-01T15:14:58;29.10;19.70
69328;DHT22;56472;52.114;5.492;2023-03-01T15:17:38;29.10;19.90
69328;DHT22;56472;52.114;5.492;2023-03-01T15:20:15;29.00;19.80
69328;DHT22;56472;52.114;5.492;2023-03-01T15:22:46;28.80;19.60
69328;DHT22;56472;52.114;5.492;2023-03-01T15:25:19;28.50;19.60
69328;DHT22;56472;52.114;5.492;2023-03-01T15:27:49;28.00;19.70
69328;DHT22;56472;52.114;5.492;2023-03-01T15:30:20;27.70;20.00
69328;DHT22;56472;52.114;5.492;2023-03-01T15:32:48;27.30;20.20
69328;DHT22;56472;52.114;5.492;2023-03-01T15:41:31;27.30;20.50
69328;DHT22;56472;52.114;5.492;2023-03-01T15:44:00;27.50;20.20
69328;DHT22;56472;52.114;5.492;2023-03-01T15:46:46;27.70;20.40
69328;DHT22;56472;52.114;5.492;2023-03-01T15:49:38;28.00;20.40
69328;DHT22;56472;52.114;5.492;2023-03-01T15:52:29;28.10;20.30
69328;DHT22;56472;52.114;5.492;2023-03-01T15:55:04;28.30;20.60
69328;DHT22;56472;52.114;5.492;2023-03-01T15:57:32;28.40;20.70
69328;DHT22;56472;52.114;5.492;2023-03-01T15:59:59;28.60;20.60
69328;DHT22;56472;52.114;5.492;2023-03-01T16:02:26;28.60;20.40
69328;DHT22;56472;52.114;5.492;2023-03-01T16:04:53;28.50;20.40
69328;DHT22;56472;52.114;5.492;2023-03-01T16:07:20;28.30;20.40
69328;DHT22;56472;52.114;5.492;2023-03-01T16:09:47;28.10;20.20
69328;DHT22;56472;52.114;5.492;2023-03-01T16:12:15;27.70;20.30
69328;DHT22;56472;52.114;5.492;2023-03-01T16:14:43;27.10;20.40
69328;DHT22;56472;52.114;5.492;2023-03-01T16:17:10;26.60;20.50
69328;DHT22;56472;52.114;5.492;2023-03-01T16:19:38;26.00;20.80
69328;DHT22;56472;52.114;5.492;2023-03-01T16:22:05;25.30;21.00
69328;DHT22;56472;52.114;5.492;2023-03-01T16:24:32;24.60;21.50
69328;DHT22;56472;52.114;5.492;2023-03-01T16:26:58;23.90;21.90
69328;DHT22;56472;52.114;5.492;2023-03-01T16:29:25;23.20;22.70
69328;DHT22;56472;52.114;5.492;2023-03-01T16:31:52;22.50;22.60
69328;DHT22;56472;52.114;5.492;2023-03-01T16:34:20;21.80;23.40
69328;DHT22;56472;52.114;5.492;2023-03-01T16:36:48;21.20;23.90
69328;DHT22;56472;52.114;5.492;2023-03-01T16:39:16;20.60;24.50
69328;DHT22;56472;52.114;5.492;2023-03-01T16:41:43;20.00;24.80
69328;DHT22;56472;52.114;5.492;2023-03-01T16:44:10;19.50;25.50
69328;DHT22;56472;52.114;5.492;2023-03-01T16:46:37;19.10;26.00
69328;DHT22;56472;52.114;5.492;2023-03-01T16:49:04;18.60;26.50
69328;DHT22;56472;52.114;5.492;2023-03-01T16:51:31;18.20;27.00
69328;DHT22;56472;52.114;5.492;2023-03-01T16:54:01;17.80;27.60
69328;DHT22;56472;52.114;5.492;2023-03-01T16:56:28;17.50;27.70
69328;DHT22;56472;52.114;5.492;2023-03-01T16:58:57;17.10;28.20
69328;DHT22;56472;52.114;5.492;2023-03-01T17:01:24;16.80;28.60
69328;DHT22;56472;52.114;5.492;2023-03-01T17:03:52;16.50;28.90
69328;DHT22;56472;52.114;5.492;2023-03-01T17:06:20;16.30;29.30
69328;DHT22;56472;52.114;5.492;2023-03-01T17:08:48;16.10;29.60
69328;DHT22;56472;52.114;5.492;2023-03-01T17:11:17;15.90;29.90
69328;DHT22;56472;52.114;5.492;2023-03-01T17:13:45;15.60;29.90
69328;DHT22;56472;52.114;5.492;2023-03-01T17:16:14;15.40;30.30
69328;DHT22;56472;52.114;5.492;2023-03-01T17:18:43;15.20;30.60
69328;DHT22;56472;52.114;5.492;2023-03-01T17:21:11;14.90;30.70
69328;DHT22;56472;52.114;5.492;2023-03-01T17:23:40;14.60;31.30
69328;DHT22;56472;52.114;5.492;2023-03-01T17:26:08;14.40;31.80
69328;DHT22;56472;52.114;5.492;2023-03-01T17:28:36;14.10;32.00
69328;DHT22;56472;52.114;5.492;2023-03-01T17:31:05;13.90;32.30
69328;DHT22;56472;52.114;5.492;2023-03-01T17:33:32;13.60;32.70
69328;DHT22;56472;52.114;5.492;2023-03-01T17:35:59;13.40;33.20
69328;DHT22;56472;52.114;5.492;2023-03-01T17:38:27;13.20;33.50
69328;DHT22;56472;52.114;5.492;2023-03-01T17:40:54;13.10;33.90
69328;DHT22;56472;52.114;5.492;2023-03-01T17:43:24;12.90;34.20
69328;DHT22;56472;52.114;5.492;2023-03-01T17:45:51;12.70;34.40
69328;DHT22;56472;52.114;5.492;2023-03-01T17:48:20;12.50;34.20
69328;DHT22;56472;52.114;5.492;2023-03-01T17:50:47;12.40;34.50
69328;DHT22;56472;52.114;5.492;2023-03-01T17:53:14;12.30;34.60
69328;DHT22;56472;52.114;5.492;2023-03-01T17:55:42;12.10;34.90
69328;DHT22;56472;52.114;5.492;2023-03-01T17:58:12;12.00;35.20
69328;DHT22;56472;52.114;5.492;2023-03-01T18:00:40;11.90;35.50
69328;DHT22;56472;52.114;5.492;2023-03-01T18:03:07;11.70;35.70
69328;DHT22;56472;52.114;5.492;2023-03-01T18:05:35;11.60;36.00
69328;DHT22;56472;52.114;5.492;2023-03-01T18:08:04;11.50;36.10
69328;DHT22;56472;52.114;5.492;2023-03-01T18:10:32;11.40;36.40
69328;DHT22;56472;52.114;5.492;2023-03-01T18:13:00;11.30;36.50
69328;DHT22;56472;52.114;5.492;2023-03-01T18:15:27;11.10;36.60
69328;DHT22;56472;52.114;5.492;2023-03-01T18:17:54;11.00;36.80
69328;DHT22;56472;52.114;5.492;2023-03-01T18:20:21;10.90;36.70
69328;DHT22;56472;52.114;5.492;2023-03-01T18:22:48;10.80;36.90
69328;DHT22;56472;52.114;5.492;2023-03-01T18:25:16;10.80;37.00